Time;durP1;ratioP1;P1;durP2;ratioP2;P2;SDS_P1;SDS_P2;PMS_P1;PMS_P2;Temp;Humidity;BMP_temperature;BMP_pressure;BME280_temperature;BME280_humidity;BME280_pressure;Samples;Min_cycle;Max_cycle;Signal;HPM_P1;HPM_P2
2023/04/18 00:00:19;;;;;;;12.90;2.20;;;;;;;10.80;56.22;101415.77;107190;1281;60012;-76
2023/04/18 00:02:45;;;;;;;6.70;2.30;;;;;;;10.78;56.35;101417.80;107196;1281;59189;-76
2023/04/18 00:05:16;;;;;;;12.10;2.50;;;;;;;10.75;56.65;101412.68;107195;1282;59033;-75
2023/04/18 00:07:43;;;;;;;9.50;2.30;;;;;;;10.73;56.74;101411.02;107188;1281;73273;-75
2023/04/18 00:10:09;;;;;;;5.90;2.30;;;;;;;10.72;56.92;101411.50;107206;1281;59049;-75
2023/04/18 00:12:35;;;;;;;11.60;2.00;;;;;;;10.71;57.03;101408.30;107224;1281;59428;-75
2023/04/18 00:15:01;;;;;;;7.20;2.30;;;;;;;10.69;56.95;101408.79;107223;1282;59016;-74
2023/04/18 00:17:27;;;;;;;7.00;2.20;;;;;;;10.66;57.00;101404.55;107232;1281;58978;-75
2023/04/18 00:19:55;;;;;;;9.50;2.30;;;;;;;10.65;57.36;101405.39;107210;1282;59145;-75
2023/04/18 00:22:21;;;;;;;12.10;2.20;;;;;;;10.62;57.35;101405.17;107206;1281;59063;-75
2023/04/18 00:24:51;;;;;;;5.70;1.90;;;;;;;10.61;57.53;101404.48;107193;1282;59027;-75
2023/04/18 00:27:20;;;;;;;7.70;2.40;;;;;;;10.59;57.43;101404.27;107225;1282;75448;-75
2023/04/18 00:29:46;;;;;;;10.50;2.30;;;;;;;10.56;57.31;101406.40;107198;1282;73317;-76
2023/04/18 00:32:12;;;;;;;20.70;2.70;;;;;;;10.55;57.38;101404.20;106770;1282;59141;-75
2023/04/18 00:34:39;;;;;;;10.40;2.80;;;;;;;10.53;57.51;101407.09;107204;1282;59024;-75
2023/04/18 00:37:05;;;;;;;11.20;2.90;;;;;;;10.52;57.53;101408.36;107218;1282;59065;-75
2023/04/18 00:39:31;;;;;;;6.60;2.00;;;;;;;10.50;57.82;101403.85;107191;1282;58954;-75
2023/04/18 00:41:56;;;;;;;11.80;2.50;;;;;;;10.47;57.77;101403.85;107264;1281;59183;-75
2023/04/18 00:44:21;;;;;;;12.70;2.80;;;;;;;10.44;57.89;101399.10;107178;1282;59079;-75
2023/04/18 00:46:47;;;;;;;13.60;2.30;;;;;;;10.43;58.00;101401.77;107252;1282;59295;-76
2023/04/18 00:49:12;;;;;;;7.00;2.40;;;;;;;10.41;58.31;101397.30;107215;1282;59451;-75
2023/04/18 00:51:39;;;;;;;8.60;2.00;;;;;;;10.38;58.29;101392.40;107209;1282;59058;-75
2023/04/18 00:54:06;;;;;;;14.50;2.80;;;;;;;10.35;58.54;101393.96;107201;1282;59063;-75
2023/04/18 00:56:34;;;;;;;8.20;2.50;;;;;;;10.31;58.73;101392.09;107211;1281;58991;-75
2023/04/18 00:59:00;;;;;;;12.80;2.50;;;;;;;10.28;58.84;101387.67;107203;1282;60452;-76
2023/04/18 01:01:26;;;;;;;12.70;2.70;;;;;;;10.24;59.06;101379.10;107218;1282;59405;-76
2023/04/18 01:03:51;;;;;;;7.80;2.50;;;;;;;10.19;59.23;101379.80;107238;1282;59740;-75
2023/04/18 01:06:17;;;;;;;7.50;2.30;;;;;;;10.17;59.41;101377.45;107167;1282;58949;-75
2023/04/18 01:08:44;;;;;;;13.80;2.90;;;;;;;10.13;59.57;101379.64;107039;1281;59080;-74
2023/04/18 01:11:10;;;;;;;11.80;3.00;;;;;;;10.10;59.65;101380.90;107246;1282;59167;-75
2023/04/18 01:13:35;;;;;;;13.40;3.00;;;;;;;10.08;60.04;101377.64;107286;1282;59008;-75
2023/04/18 01:16:01;;;;;;;17.20;2.90;;;;;;;10.05;60.18;101380.47;107154;1282;72619;-75
2023/04/18 01:18:26;;;;;;;16.80;3.20;;;;;;;10.00;60.39;101376.83;107225;1282;58938;-75
2023/04/18 01:20:53;;;;;;;22.50;3.20;;;;;;;9.96;60.72;101377.65;107205;1282;59888;-75
2023/04/18 01:23:20;;;;;;;13.10;2.90;;;;;;;9.93;60.80;101379.25;107227;1282;58949;-76
2023/04/18 01:25:48;;;;;;;12.70;2.80;;;;;;;9.91;61.48;101376.25;107219;1282;59170;-75
2023/04/18 01:28:14;;;;;;;8.10;3.20;;;;;;;9.87;61.66;101376.88;107228;1281;59060;-75
2023/04/18 01:30:40;;;;;;;17.40;2.90;;;;;;;9.84;62.10;101376.20;107180;1281;59057;-75
2023/04/18 01:33:06;;;;;;;14.20;2.70;;;;;;;9.84;62.62;101373.98;107260;1282;59013;-75
2023/04/18 01:35:32;;;;;;;20.30;3.80;;;;;;;9.81;63.19;101374.20;107204;1282;58942;-75
2023/04/18 01:37:58;;;;;;;14.10;3.40;;;;;;;9.77;63.93;101372.13;107269;1282;59061;-75
2023/04/18 01:40:24;;;;;;;13.20;3.20;;;;;;;9.71;64.69;101371.97;106716;1282;59059;-75
2023/04/18 01:42:50;;;;;;;10.40;2.70;;;;;;;9.63;65.25;101367.27;107212;1281;58975;-75
2023/04/18 01:45:16;;;;;;;15.10;3.90;;;;;;;9.57;65.83;101365.42;107191;1282;58968;-75
2023/04/18 01:47:42;;;;;;;16.20;4.10;;;;;;;9.51;66.47;101368.73;107281;1282;59095;-75
2023/04/18 01:50:08;;;;;;;10.30;3.30;;;;;;;9.46;66.91;101367.41;107238;1282;72663;-75
2023/04/18 01:52:34;;;;;;;16.50;4.30;;;;;;;9.41;67.30;101364.93;107198;1282;59046;-74
2023/04/18 01:55:01;;;;;;;14.30;4.40;;;;;;;9.36;67.91;101361.00;107234;1282;59074;-75
2023/04/18 01:57:27;;;;;;;14.70;3.90;;;;;;;9.33;68.34;101362.00;106759;1283;59121;-75
2023/04/18 01:59:53;;;;;;;15.10;3.70;;;;;;;9.29;68.75;101361.81;107247;1282;59147;-75
2023/04/18 02:02:18;;;;;;;11.60;3.70;;;;;;;9.27;69.36;101361.55;107182;1282;59166;-75
2023/04/18 02:04:44;;;;;;;11.90;3.40;;;;;;;9.25;69.80;101369.13;107255;1282;59202;-74
2023/04/18 02:07:10;;;;;;;17.50;3.80;;;;;;;9.21;70.22;101367.53;107301;1282;59081;-74
2023/04/18 02:09:35;;;;;;;18.30;4.10;;;;;;;9.20;70.89;101367.30;107245;1282;74253;-75
2023/04/18 02:12:01;;;;;;;15.20;3.90;;;;;;;9.18;71.19;101363.16;107203;1282;59544;-75
2023/04/18 02:14:31;;;;;;;17.30;4.30;;;;;;;9.16;71.47;101365.63;106815;1282;59008;-75
2023/04/18 02:16:57;;;;;;;24.70;5.10;;;;;;;9.15;71.47;101364.28;107019;1282;60146;-75
2023/04/18 02:19:23;;;;;;;15.20;4.30;;;;;;;9.13;71.58;101368.50;107237;1282;58986;-75
2023/04/18 02:21:49;;;;;;;14.60;5.30;;;;;;;9.12;71.93;101369.17;107219;1282;58986;-75
2023/04/18 02:24:15;;;;;;;19.70;4.90;;;;;;;9.10;72.11;101368.00;106676;1282;59226;-75
2023/04/18 02:26:40;;;;;;;12.70;5.00;;;;;;;9.07;72.34;101367.13;106773;1282;59126;-75
2023/04/18 02:29:06;;;;;;;21.50;5.30;;;;;;;9.05;72.63;101364.05;107272;1281;59494;-75
2023/04/18 02:31:32;;;;;;;13.10;4.30;;;;;;;9.03;73.10;101362.02;107287;1281;59391;-75
2023/04/18 02:33:57;;;;;;;14.90;4.20;;;;;;;9.00;73.64;101358.02;107215;1282;72574;-75
2023/04/18 02:36:26;;;;;;;16.70;4.20;;;;;;;8.98;73.43;101353.88;107241;1282;59305;-75
2023/04/18 02:38:53;;;;;;;15.10;4.00;;;;;;;8.98;73.87;101350.81;106793;1281;60293;-74
2023/04/18 02:41:19;;;;;;;15.70;4.30;;;;;;;8.98;73.23;101351.67;106976;1282;338357;-75
2023/04/18 02:43:44;;;;;;;15.40;4.30;;;;;;;8.97;73.30;101348.77;106954;1282;59545;-74
2023/04/18 02:46:10;;;;;;;14.80;4.20;;;;;;;8.97;73.27;101352.23;107204;1282;59018;-75
2023/04/18 02:48:36;;;;;;;11.50;4.00;;;;;;;8.96;73.03;101355.77;107255;1282;58891;-75
2023/04/18 02:51:03;;;;;;;10.00;3.80;;;;;;;8.96;73.33;101361.79;107270;1282;59169;-75
2023/04/18 02:53:28;;;;;;;16.50;3.90;;;;;;;8.96;73.06;101368.98;107304;1282;58955;-75
2023/04/18 02:55:54;;;;;;;16.60;4.10;;;;;;;8.96;73.13;101369.31;107264;1282;59306;-74
2023/04/18 02:58:19;;;;;;;15.70;4.10;;;;;;;8.95;73.38;101368.71;107010;1282;59002;-75
2023/04/18 03:00:45;;;;;;;22.30;4.00;;;;;;;8.94;72.66;101369.80;107242;1282;59078;-74
2023/04/18 03:03:11;;;;;;;14.50;3.10;;;;;;;8.94;72.54;101362.70;107284;1282;59045;-74
2023/04/18 03:05:38;;;;;;;11.30;3.10;;;;;;;8.93;72.29;101354.60;107233;1282;59013;-74
2023/04/18 03:08:04;;;;;;;14.30;3.60;;;;;;;8.93;72.06;101353.36;106759;1282;59259;-75
2023/04/18 03:10:30;;;;;;;9.70;3.40;;;;;;;8.93;72.21;101350.89;107287;1282;59529;-75
2023/04/18 03:12:56;;;;;;;13.50;3.70;;;;;;;8.92;72.07;101357.05;107262;1282;59065;-74
2023/04/18 03:15:21;;;;;;;15.80;3.30;;;;;;;8.93;72.10;101357.78;106944;1284;59024;-75
2023/04/18 03:17:48;;;;;;;13.20;3.30;;;;;;;8.94;72.19;101361.46;107290;1282;59077;-75
2023/04/18 03:20:13;;;;;;;15.80;3.40;;;;;;;8.96;71.51;101360.67;107196;1282;59385;-74
2023/04/18 03:22:39;;;;;;;15.20;3.50;;;;;;;9.00;71.15;101362.52;107241;1281;59542;-75
2023/04/18 03:25:05;;;;;;;12.70;3.70;;;;;;;9.03;71.09;101362.88;107230;1281;59134;-75
2023/04/18 03:27:31;;;;;;;17.70;3.40;;;;;;;9.06;70.62;101362.80;107275;1282;59261;-73
2023/04/18 03:29:56;;;;;;;19.40;3.80;;;;;;;9.08;70.46;101362.11;107220;1282;59015;-75
2023/04/18 03:32:22;;;;;;;16.70;4.20;;;;;;;9.12;70.97;101359.77;107260;1281;59428;-75
2023/04/18 03:34:48;;;;;;;20.00;4.60;;;;;;;9.15;70.82;101358.89;107190;1282;75568;-74
2023/04/18 03:37:13;;;;;;;25.10;3.90;;;;;;;9.20;70.26;101363.95;107238;1281;59048;-75
2023/04/18 03:39:39;;;;;;;12.20;3.30;;;;;;;9.24;69.36;101357.96;107219;1281;59019;-75
2023/04/18 03:42:04;;;;;;;9.60;3.20;;;;;;;9.29;69.34;101364.92;106916;1282;59087;-75
2023/04/18 03:44:30;;;;;;;14.60;3.20;;;;;;;9.36;69.39;101369.77;107282;1282;59036;-75
2023/04/18 03:46:56;;;;;;;12.60;2.80;;;;;;;9.43;68.86;101372.52;107223;1282;74259;-75
2023/04/18 03:49:21;;;;;;;12.60;3.00;;;;;;;9.51;68.09;101366.58;107188;1282;59140;-75
2023/04/18 03:51:47;;;;;;;15.00;2.60;;;;;;;9.71;67.52;101364.38;107200;1282;58973;-75
2023/04/18 03:54:16;;;;;;;23.60;3.00;;;;;;;10.09;66.85;101360.80;107263;1281;59090;-75
2023/04/18 03:56:41;;;;;;;16.10;2.90;;;;;;;10.69;64.16;101362.26;107215;1282;59194;-75
2023/04/18 03:59:07;;;;;;;11.10;2.90;;;;;;;11.06;62.56;101354.67;107230;1281;59023;-75
2023/04/18 04:01:32;;;;;;;21.60;2.90;;;;;;;11.19;60.90;101355.37;107214;1282;59054;-75
2023/04/18 04:03:58;;;;;;;8.10;2.50;;;;;;;11.34;60.29;101352.16;107219;1282;58992;-75
2023/04/18 04:06:25;;;;;;;19.60;3.00;;;;;;;11.37;58.79;101349.58;106784;1283;59176;-76
2023/04/18 04:08:50;;;;;;;8.70;2.70;;;;;;;11.16;59.14;101352.52;107053;1282;74728;-75
2023/04/18 04:11:16;;;;;;;17.70;3.50;;;;;;;11.00;58.80;101354.09;107192;1282;59425;-75
2023/04/18 04:13:41;;;;;;;17.10;3.50;;;;;;;10.84;59.42;101356.08;107234;1282;58998;-75
2023/04/18 04:16:07;;;;;;;10.30;2.80;;;;;;;10.73;59.63;101357.55;107242;1282;59029;-75
2023/04/18 04:18:32;;;;;;;19.80;3.70;;;;;;;10.60;59.27;101364.31;107258;1281;58972;-75
2023/04/18 04:20:59;;;;;;;15.60;2.90;;;;;;;10.49;59.50;101364.48;107152;1282;73144;-75
2023/04/18 04:23:25;;;;;;;15.70;3.00;;;;;;;10.37;59.13;101363.40;107133;1282;59151;-75
2023/04/18 04:25:52;;;;;;;17.90;2.80;;;;;;;10.29;59.87;101362.48;107167;1282;59066;-76
2023/04/18 04:28:21;;;;;;;21.20;2.80;;;;;;;10.24;59.99;101365.41;107187;1282;73423;-76
2023/04/18 04:30:49;;;;;;;17.60;2.80;;;;;;;10.19;60.28;101367.79;107201;1282;74047;-75
2023/04/18 04:33:19;;;;;;;19.30;3.30;;;;;;;10.18;60.60;101366.36;107004;1282;73528;-75
2023/04/18 04:35:46;;;;;;;17.40;3.00;;;;;;;10.23;60.88;101366.98;107143;1282;60142;-75
2023/04/18 04:38:14;;;;;;;19.30;2.90;;;;;;;10.25;60.69;101362.22;107168;1282;60082;-76
2023/04/18 04:40:41;;;;;;;17.20;3.20;;;;;;;10.28;60.52;101360.45;107222;1282;75828;-75
2023/04/18 04:43:11;;;;;;;22.70;3.00;;;;;;;10.37;60.61;101359.52;107137;1282;58987;-76
2023/04/18 04:45:40;;;;;;;15.80;3.40;;;;;;;10.46;60.44;101361.73;107166;1282;73627;-75
2023/04/18 04:48:09;;;;;;;17.00;2.90;;;;;;;10.55;60.02;101367.49;107200;1282;59334;-75
2023/04/18 04:50:37;;;;;;;14.80;2.60;;;;;;;10.68;59.71;101360.80;107162;1282;61223;-75
2023/04/18 04:53:06;;;;;;;17.50;3.10;;;;;;;11.28;60.13;101354.86;107147;1282;75253;-75
2023/04/18 04:55:32;;;;;;;15.90;2.90;;;;;;;11.67;58.10;101365.39;107171;1282;74345;-75
2023/04/18 04:57:58;;;;;;;12.60;2.80;;;;;;;11.57;57.65;101367.25;107156;1282;59152;-76
2023/04/18 05:00:23;;;;;;;11.70;2.70;;;;;;;11.49;58.00;101367.77;107169;1282;59019;-76
2023/04/18 05:02:52;;;;;;;13.00;2.30;;;;;;;11.55;57.66;101373.64;107209;1282;59202;-75
2023/04/18 05:05:18;;;;;;;15.80;2.80;;;;;;;11.58;57.58;101371.58;107170;1282;59273;-75
2023/04/18 05:07:43;;;;;;;11.80;2.60;;;;;;;11.71;57.97;101373.92;106757;1283;59226;-75
2023/04/18 05:10:09;;;;;;;15.00;3.70;;;;;;;11.97;57.19;101372.52;107180;1282;59112;-75
2023/04/18 05:12:34;;;;;;;13.60;3.60;;;;;;;12.93;56.26;101378.69;106678;1282;59033;-76
2023/04/18 05:15:00;;;;;;;20.30;3.00;;;;;;;13.94;53.57;101369.84;107207;1282;59137;-76
2023/04/18 05:17:26;;;;;;;13.60;2.50;;;;;;;14.31;51.23;101376.70;107265;1282;59111;-77
2023/04/18 05:19:51;;;;;;;18.90;3.60;;;;;;;14.50;51.31;101375.73;106973;1283;74079;-76
2023/04/18 05:22:17;;;;;;;13.90;3.00;;;;;;;15.09;49.64;101369.06;107196;1282;59099;-77
2023/04/18 05:24:42;;;;;;;14.20;3.20;;;;;;;15.98;49.02;101372.39;107193;1282;59054;-77
2023/04/18 05:27:08;;;;;;;19.60;3.50;;;;;;;16.97;46.95;101378.17;107271;1282;59109;-76
2023/04/18 05:29:34;;;;;;;20.40;3.50;;;;;;;17.46;44.54;101372.71;107231;1282;59084;-77
2023/04/18 05:32:00;;;;;;;17.50;3.40;;;;;;;17.70;43.84;101370.63;106595;1283;61424;-77
2023/04/18 05:34:26;;;;;;;15.90;3.00;;;;;;;18.04;43.06;101365.48;107149;1282;58980;-77
2023/04/18 05:36:52;;;;;;;28.70;3.30;;;;;;;17.22;42.74;101373.08;107205;1282;59030;-76
2023/04/18 05:39:18;;;;;;;15.10;3.10;;;;;;;16.24;43.99;101371.33;107196;1282;59094;-76
2023/04/18 05:41:43;;;;;;;12.20;2.90;;;;;;;15.39;45.50;101369.17;107172;1282;59053;-76
2023/04/18 05:44:09;;;;;;;14.70;3.20;;;;;;;15.09;46.69;101364.84;107196;1282;59061;-77
2023/04/18 05:46:34;;;;;;;14.60;3.40;;;;;;;15.55;46.99;101361.23;106800;1287;59169;-76
2023/04/18 05:49:00;;;;;;;21.90;3.30;;;;;;;15.60;47.00;101354.54;107191;1282;59080;-76
2023/04/18 05:51:27;;;;;;;25.70;3.70;;;;;;;16.04;47.10;101351.28;106834;1283;59127;-77
2023/04/18 05:53:53;;;;;;;23.90;3.00;;;;;;;16.73;45.63;101355.35;107231;1282;59005;-77
2023/04/18 05:56:18;;;;;;;19.70;3.60;;;;;;;16.57;45.17;101347.82;107216;1282;59086;-78
2023/04/18 05:58:46;;;;;;;33.50;4.20;;;;;;;16.37;44.99;101346.13;106874;1282;59028;-76
2023/04/18 06:01:13;;;;;;;18.70;3.20;;;;;;;16.31;45.24;101344.75;107179;1282;59410;-77
2023/04/18 06:03:40;;;;;;;30.10;4.50;;;;;;;16.77;45.05;101349.61;106941;1283;59615;-75
2023/04/18 06:06:06;;;;;;;23.10;4.00;;;;;;;17.43;44.22;101341.67;106709;1283;58994;-75
2023/04/18 06:08:32;;;;;;;27.40;3.30;;;;;;;18.05;43.48;101336.61;107261;1282;59009;-75
2023/04/18 06:10:57;;;;;;;31.30;4.30;;;;;;;18.83;42.77;101329.20;106761;1283;59140;-75
2023/04/18 06:13:23;;;;;;;21.50;3.60;;;;;;;19.22;41.26;101321.36;106996;1283;59021;-75
2023/04/18 06:15:48;;;;;;;23.30;3.70;;;;;;;19.35;40.88;101322.45;107216;1282;59958;-74
2023/04/18 06:18:14;;;;;;;41.50;5.50;;;;;;;19.48;40.50;101319.30;107215;1282;58925;-75
2023/04/18 06:20:40;;;;;;;26.00;3.70;;;;;;;19.44;40.08;101318.16;106699;1282;59610;-75
2023/04/18 06:23:07;;;;;;;18.40;3.60;;;;;;;19.41;40.26;101320.09;106776;1283;59197;-75
2023/04/18 06:25:32;;;;;;;24.40;3.70;;;;;;;19.81;40.63;101322.41;107162;1282;59050;-75
2023/04/18 06:27:58;;;;;;;25.20;3.10;;;;;;;19.94;39.76;101325.01;107219;1282;58996;-76
2023/04/18 06:30:23;;;;;;;27.20;3.30;;;;;;;19.83;39.51;101327.85;106815;1282;59124;-76
2023/04/18 06:32:49;;;;;;;25.30;4.00;;;;;;;19.81;39.92;101331.33;107174;1282;59143;-76
2023/04/18 06:35:15;;;;;;;22.60;3.60;;;;;;;20.10;39.41;101321.12;107235;1282;59054;-76
2023/04/18 06:37:43;;;;;;;26.30;3.50;;;;;;;20.37;39.61;101320.80;107178;1282;60136;-76
2023/04/18 06:40:10;;;;;;;18.50;3.10;;;;;;;20.68;38.90;101320.08;107142;1282;60173;-76
2023/04/18 06:42:36;;;;;;;23.30;3.70;;;;;;;20.85;38.20;101321.69;107191;1282;73145;-77
2023/04/18 06:45:05;;;;;;;25.80;4.30;;;;;;;20.76;37.92;101310.27;107179;1282;59562;-77
2023/04/18 06:47:37;;;;;;;36.90;4.40;;;;;;;21.05;38.50;101308.21;106645;1286;73776;-77
2023/04/18 06:50:04;;;;;;;26.70;3.80;;;;;;;21.27;38.02;101301.92;106233;1290;60684;-76
2023/04/18 06:52:30;;;;;;;19.70;3.50;;;;;;;21.27;37.53;101299.96;106256;1290;62028;-76
2023/04/18 06:54:56;;;;;;;24.80;3.60;;;;;;;21.21;37.68;101296.05;106271;1291;59574;-75
2023/04/18 06:57:21;;;;;;;21.50;3.10;;;;;;;20.98;37.83;101295.02;105982;1291;59609;-76
2023/04/18 06:59:47;;;;;;;23.80;4.30;;;;;;;21.17;37.98;101291.00;106175;1291;59068;-76
2023/04/18 07:02:12;;;;;;;25.40;4.00;;;;;;;21.18;37.85;101290.16;106259;1291;59160;-76
2023/04/18 07:04:38;;;;;;;19.00;3.90;;;;;;;21.26;37.70;101285.60;106120;1290;73984;-76
2023/04/18 07:07:04;;;;;;;17.10;3.80;;;;;;;21.38;37.62;101294.54;106295;1292;59533;-76
2023/04/18 07:09:30;;;;;;;22.00;4.20;;;;;;;21.40;37.38;101294.92;106038;1291;59207;-76
2023/04/18 07:11:56;;;;;;;24.50;3.40;;;;;;;20.79;37.46;101293.09;106255;1291;59637;-76
2023/04/18 07:14:23;;;;;;;20.10;3.50;;;;;;;19.95;38.89;101292.54;106259;1290;59169;-75
2023/04/18 07:16:49;;;;;;;15.00;3.60;;;;;;;20.05;39.27;101286.63;106244;1291;59070;-76
2023/04/18 07:19:15;;;;;;;21.60;3.60;;;;;;;20.05;39.30;101286.14;106402;1288;59055;-76
2023/04/18 07:21:43;;;;;;;18.90;3.60;;;;;;;19.41;40.03;101286.03;106944;1282;59056;-75
2023/04/18 07:24:09;;;;;;;19.70;3.40;;;;;;;19.40;40.24;101280.14;107160;1283;58939;-76
2023/04/18 07:26:35;;;;;;;19.40;3.20;;;;;;;19.47;40.47;101274.59;107190;1282;59312;-76
2023/04/18 07:29:01;;;;;;;14.40;3.30;;;;;;;19.76;40.29;101277.21;107177;1282;58992;-76
2023/04/18 07:31:27;;;;;;;21.30;3.80;;;;;;;19.99;39.56;101283.09;107187;1282;59339;-77
2023/04/18 07:33:54;;;;;;;36.70;4.00;;;;;;;20.35;39.42;101279.01;107231;1282;59351;-76
2023/04/18 07:36:20;;;;;;;14.80;3.10;;;;;;;20.79;38.94;101275.33;106677;1282;59006;-76
2023/04/18 07:38:46;;;;;;;16.20;2.80;;;;;;;21.03;38.25;101274.64;107175;1282;59494;-75
2023/04/18 07:41:11;;;;;;;21.20;3.20;;;;;;;21.04;38.48;101270.93;107255;1283;58979;-73
2023/04/18 07:43:46;;;;;;;22.80;3.40;;;;;;;21.03;38.42;101275.19;106910;1283;59079;-75
2023/04/18 07:46:12;;;;;;;12.80;3.00;;;;;;;20.99;38.50;101275.52;106779;1283;60865;-75
2023/04/18 07:48:37;;;;;;;17.10;3.00;;;;;;;21.50;38.34;101270.84;107201;1282;59539;-76
2023/04/18 07:51:03;;;;;;;16.60;3.80;;;;;;;21.61;37.49;101269.38;107149;1282;59322;-74
2023/04/18 07:53:29;;;;;;;16.20;3.10;;;;;;;21.39;37.54;101267.41;107188;1282;60021;-75
2023/04/18 07:55:54;;;;;;;11.80;2.70;;;;;;;20.77;38.07;101275.83;106848;1283;59131;-74
2023/04/18 07:58:20;;;;;;;20.80;3.40;;;;;;;20.30;38.81;101266.48;107195;1282;60879;-74
2023/04/18 08:00:46;;;;;;;15.70;3.30;;;;;;;19.79;39.45;101262.96;107194;1283;59014;-74
2023/04/18 08:03:12;;;;;;;21.40;3.50;;;;;;;19.63;40.18;101260.57;107221;1282;59449;-75
2023/04/18 08:05:41;;;;;;;16.80;3.10;;;;;;;19.70;40.03;101259.02;106974;1282;59153;-75
2023/04/18 08:11:29;;;;;;;27.10;3.20;;;;;;;18.95;41.71;101248.61;107173;1282;58986;-76
2023/04/18 08:13:55;;;;;;;23.30;3.60;;;;;;;18.70;42.07;101247.48;107209;1282;59064;-75
2023/04/18 08:16:20;;;;;;;15.80;3.10;;;;;;;18.98;42.51;101249.70;106993;1283;59101;-76
2023/04/18 08:18:46;;;;;;;9.40;2.30;;;;;;;19.56;41.78;101251.52;107167;1282;58982;-76
2023/04/18 08:21:11;;;;;;;19.10;3.30;;;;;;;20.08;41.85;101246.05;107172;1283;59554;-75
2023/04/18 08:23:37;;;;;;;18.30;3.10;;;;;;;20.96;40.05;101249.67;107248;1282;59044;-76
2023/04/18 08:26:03;;;;;;;22.80;3.10;;;;;;;21.29;39.61;101241.52;107141;1283;73354;-76
2023/04/18 08:28:28;;;;;;;25.10;3.70;;;;;;;21.83;38.49;101234.92;106563;1282;59199;-76
2023/04/18 08:30:55;;;;;;;15.40;2.80;;;;;;;22.31;37.99;101243.73;107174;1283;59105;-75
2023/04/18 08:33:25;;;;;;;19.50;3.50;;;;;;;22.32;37.75;101242.08;106814;1282;59063;-76
2023/04/18 08:35:50;;;;;;;14.50;3.40;;;;;;;22.26;37.21;101238.73;107175;1282;76190;-75
2023/04/18 08:38:17;;;;;;;47.10;3.90;;;;;;;22.00;37.36;101232.57;107201;1282;59008;-76
2023/04/18 08:40:44;;;;;;;11.20;2.50;;;;;;;21.66;37.62;101234.02;106787;1283;59199;-76
2023/04/18 08:43:13;;;;;;;24.90;3.70;;;;;;;21.62;38.04;101234.23;106782;1289;59130;-76
2023/04/18 08:45:43;;;;;;;16.50;3.00;;;;;;;21.91;37.76;101234.42;107225;1283;60359;-77
2023/04/18 08:48:16;;;;;;;13.20;2.50;;;;;;;22.05;38.18;101235.70;107161;1283;72413;-76
2023/04/18 08:50:43;;;;;;;11.40;3.00;;;;;;;22.18;38.05;101229.20;107187;1282;74322;-76
2023/04/18 08:53:09;;;;;;;12.60;2.60;;;;;;;22.35;37.62;101230.95;106955;1283;73348;-76
2023/04/18 08:55:34;;;;;;;14.50;3.20;;;;;;;22.67;37.65;101227.36;107168;1282;58949;-76
2023/04/18 08:58:01;;;;;;;18.00;2.80;;;;;;;22.85;36.78;101221.15;107213;1282;59036;-76
2023/04/18 09:00:28;;;;;;;10.70;2.50;;;;;;;22.62;36.63;101221.65;107239;1282;59167;-76
2023/04/18 09:02:55;;;;;;;15.70;3.00;;;;;;;22.43;37.32;101224.97;106656;1283;59104;-76
2023/04/18 09:05:23;;;;;;;9.00;2.40;;;;;;;22.44;37.08;101227.91;107178;1282;58975;-76
2023/04/18 09:07:51;;;;;;;17.80;2.70;;;;;;;22.21;37.02;101236.92;107155;1282;60318;-76
2023/04/18 09:10:27;;;;;;;19.50;2.90;;;;;;;22.09;37.08;101225.67;107166;1282;61547;-76
2023/04/18 09:12:55;;;;;;;14.60;2.50;;;;;;;22.35;37.46;101222.48;107196;1283;74692;-76
2023/04/18 09:15:25;;;;;;;19.00;3.10;;;;;;;22.54;37.55;101225.61;107221;1282;72429;-77
2023/04/18 09:17:52;;;;;;;8.50;2.60;;;;;;;22.45;37.07;101227.66;106954;1282;72413;-77
2023/04/18 09:20:38;;;;;;;16.80;2.70;;;;;;;22.24;37.48;101214.72;107195;1282;59990;-76
2023/04/18 09:23:09;;;;;;;14.70;2.80;;;;;;;22.13;38.20;101219.69;107208;1282;61217;-76
2023/04/18 09:25:41;;;;;;;11.80;3.10;;;;;;;22.19;37.75;101211.90;107220;1282;75121;-75
2023/04/18 09:28:29;;;;;;;13.70;2.90;;;;;;;22.27;37.85;101210.55;107230;1282;74143;-77
2023/04/18 09:30:57;;;;;;;23.50;3.80;;;;;;;21.92;37.80;101215.25;107158;1282;72912;-76
2023/04/18 09:33:27;;;;;;;13.50;2.60;;;;;;;21.61;38.59;101217.87;107161;1283;59119;-77
2023/04/18 09:35:54;;;;;;;45.20;4.30;;;;;;;21.47;38.99;101212.52;106962;1283;60340;-76
2023/04/18 09:45:56;;;;;;;11.80;2.90;;;;;;;20.84;40.83;101215.83;103549;1281;615992;-76
2023/04/18 09:48:21;;;;;;;13.00;2.60;;;;;;;20.84;40.19;101214.95;103579;1282;60395;-76
2023/04/18 09:50:49;;;;;;;14.30;2.50;;;;;;;20.94;41.23;101211.85;103793;1282;60390;-76
2023/04/18 09:53:18;;;;;;;21.50;3.00;;;;;;;20.78;40.80;101214.56;103972;1281;62080;-75
2023/04/18 09:55:45;;;;;;;14.40;3.10;;;;;;;20.56;41.66;101216.32;103797;1282;75051;-75
2023/04/18 09:58:12;;;;;;;13.60;3.10;;;;;;;20.34;41.64;101214.15;103573;1281;408501;-75
2023/04/18 10:00:38;;;;;;;26.70;4.00;;;;;;;20.15;41.85;101216.02;103986;1279;60389;-75
2023/04/18 10:03:09;;;;;;;20.40;3.30;;;;;;;19.92;42.01;101222.66;104152;1280;60290;-75
2023/04/18 10:05:38;;;;;;;10.70;2.90;;;;;;;19.81;42.22;101213.95;104096;1281;75666;-75
2023/04/18 10:08:05;;;;;;;11.10;2.90;;;;;;;19.76;42.63;101214.60;104083;1279;74878;-75
2023/04/18 10:10:32;;;;;;;15.50;3.20;;;;;;;19.67;43.11;101219.36;104043;1284;73662;-75
2023/04/18 10:12:59;;;;;;;19.00;2.80;;;;;;;19.59;43.18;101218.94;103937;1279;60388;-75
2023/04/18 10:15:27;;;;;;;17.70;3.40;;;;;;;19.30;43.35;101225.17;103792;1283;61650;-74
2023/04/18 10:17:55;;;;;;;17.20;2.50;;;;;;;19.21;44.10;101220.93;103836;1279;74330;-75
2023/04/18 10:20:25;;;;;;;10.40;2.50;;;;;;;19.48;44.41;101228.45;104070;1283;75992;-75
2023/04/18 10:22:52;;;;;;;16.10;3.10;;;;;;;19.49;43.68;101232.61;104076;1279;72150;-74
2023/04/18 10:25:38;;;;;;;18.10;2.90;;;;;;;19.33;43.99;101233.59;104067;1279;61758;-75
2023/04/18 10:28:05;;;;;;;15.60;3.20;;;;;;;19.31;44.38;101232.52;103397;1285;60428;-75
2023/04/18 10:30:40;;;;;;;23.90;3.80;;;;;;;19.25;44.68;101233.96;103365;1287;74145;-75
2023/04/18 10:36:26;;;;;;;20.00;3.20;;;;;;;18.88;45.64;101238.73;102839;1291;600688;-75
2023/04/18 10:38:54;;;;;;;19.10;3.00;;;;;;;18.80;45.20;101244.16;103107;1291;60899;-75
2023/04/18 10:41:25;;;;;;;16.00;3.40;;;;;;;18.73;45.69;101240.55;103023;1291;61394;-76
2023/04/18 10:44:08;;;;;;;12.80;2.60;;;;;;;18.69;45.74;101242.73;103031;1294;73666;-75
2023/04/18 10:46:35;;;;;;;20.70;3.00;;;;;;;18.84;46.33;101246.23;102972;1294;74023;-75
2023/04/18 10:49:20;;;;;;;12.60;3.00;;;;;;;18.80;45.48;101240.62;102637;1288;436800;-76
2023/04/18 10:51:48;;;;;;;18.40;3.00;;;;;;;18.79;46.33;101237.43;102928;1288;61582;-75
2023/04/18 10:54:50;;;;;;;17.10;2.70;;;;;;;18.96;47.00;101239.58;103148;1286;61487;-74
2023/04/18 10:57:15;;;;;;;17.80;3.00;;;;;;;18.95;46.98;101228.01;103030;1295;73826;-75
2023/04/18 10:59:43;;;;;;;17.60;2.90;;;;;;;18.91;45.45;101230.34;102411;1295;60801;-75
2023/04/18 11:02:25;;;;;;;26.60;3.10;;;;;;;18.70;46.68;101228.43;102520;1295;74204;-74
2023/04/18 11:05:07;;;;;;;15.50;3.00;;;;;;;18.56;47.39;101212.44;102700;1296;601153;-75
2023/04/18 11:07:35;;;;;;;21.50;3.90;;;;;;;18.76;46.55;101215.77;102855;1295;60503;-75
2023/04/18 11:10:02;;;;;;;28.70;3.70;;;;;;;18.91;46.88;101205.95;102668;1295;60342;-75
2023/04/18 11:12:33;;;;;;;19.40;3.70;;;;;;;19.05;47.39;101195.20;102963;1292;72150;-75
2023/04/18 11:15:00;;;;;;;21.60;3.40;;;;;;;18.89;46.77;101209.75;102828;1293;74063;-75
2023/04/18 11:17:31;;;;;;;18.10;3.40;;;;;;;18.54;47.89;101208.20;102569;1293;73149;-75
2023/04/18 11:20:08;;;;;;;13.70;3.10;;;;;;;18.43;48.52;101204.94;102322;1290;588404;-76
2023/04/18 11:22:51;;;;;;;17.90;3.60;;;;;;;18.59;48.38;101210.89;102911;1289;60737;-74
2023/04/18 11:25:21;;;;;;;15.40;3.60;;;;;;;18.53;47.57;101205.92;102978;1293;72311;-76